createdAt,value
2024-04-08T00:02:00.932Z,8.90
2024-04-08T00:04:33.067Z,10.07
2024-04-08T00:07:02.348Z,9.98
2024-04-08T00:09:34.463Z,10.38
2024-04-08T00:12:03.756Z,10.70
2024-04-08T00:14:38.866Z,10.10
2024-04-08T00:17:08.167Z,10.45
2024-04-08T00:19:40.301Z,10.73
2024-04-08T00:22:09.600Z,11.30
2024-04-08T00:24:41.871Z,11.15
2024-04-08T00:27:11.152Z,10.68
2024-04-08T00:29:46.283Z,11.93
2024-04-08T00:32:15.853Z,12.05
2024-04-08T00:34:48.809Z,11.43
2024-04-08T00:37:18.118Z,11.10
2024-04-08T00:39:50.358Z,12.15
2024-04-08T00:42:19.843Z,10.98
2024-04-08T00:44:54.901Z,10.82
2024-04-08T00:47:24.923Z,10.32
2024-04-08T00:49:57.564Z,10.18
2024-04-08T00:52:30.073Z,8.75
2024-04-08T00:54:59.581Z,9.77
2024-04-08T00:57:31.952Z,8.90
2024-04-08T01:00:04.495Z,9.82
2024-04-08T01:02:36.783Z,11.48
2024-04-08T01:05:07.844Z,10.85
2024-04-08T01:07:40.198Z,11.00
2024-04-08T01:10:10.150Z,11.10
2024-04-08T01:12:42.482Z,12.55
2024-04-08T01:15:15.025Z,12.50
2024-04-08T01:17:47.290Z,12.75
2024-04-08T01:20:16.618Z,10.82
2024-04-08T01:22:53.427Z,10.57
2024-04-08T01:25:25.670Z,11.85
2024-04-08T01:27:57.925Z,10.98
2024-04-08T01:30:27.251Z,10.57
2024-04-08T01:32:59.464Z,10.43
2024-04-08T01:35:28.849Z,11.13
2024-04-08T01:38:01.583Z,10.43
2024-04-08T01:40:33.694Z,11.43
2024-04-08T01:43:05.897Z,12.93
2024-04-08T01:45:35.189Z,11.95
2024-04-08T01:48:07.309Z,10.88
2024-04-08T01:50:36.626Z,11.95
2024-04-08T01:53:09.044Z,10.27
2024-04-08T01:55:41.225Z,10.25
2024-04-08T01:58:13.476Z,8.25
2024-04-08T02:00:42.783Z,10.07
2024-04-08T02:03:14.990Z,9.48
2024-04-08T02:05:46.880Z,9.52
2024-04-08T02:08:19.065Z,10.55
2024-04-08T02:10:53.267Z,10.75
2024-04-08T02:13:25.559Z,9.00
2024-04-08T02:15:54.879Z,9.93
2024-04-08T02:18:27.117Z,9.45
2024-04-08T02:20:56.405Z,9.68
2024-04-08T02:23:28.484Z,9.45
2024-04-08T02:26:00.636Z,7.93
2024-04-08T02:28:32.749Z,8.65
2024-04-08T02:31:04.246Z,8.10
2024-04-08T02:33:36.508Z,8.23
2024-04-08T02:36:06.562Z,7.80
2024-04-08T02:38:38.918Z,8.13
2024-04-08T02:41:11.101Z,8.63
2024-04-08T02:43:43.304Z,8.00
2024-04-08T02:46:12.543Z,8.48
2024-04-08T02:48:44.688Z,7.78
2024-04-08T02:51:14.046Z,8.40
2024-04-08T02:53:46.350Z,8.70
2024-04-08T02:56:18.603Z,7.93
2024-04-08T02:58:51.470Z,8.40
2024-04-08T03:01:21.778Z,8.18
2024-04-08T03:03:53.938Z,8.75
2024-04-08T03:06:23.262Z,8.15
2024-04-08T03:08:55.465Z,8.48
2024-04-08T03:11:27.758Z,8.30
2024-04-08T03:13:59.945Z,9.27
2024-04-08T03:16:29.326Z,8.63
2024-04-08T03:19:01.487Z,8.77
2024-04-08T03:21:30.847Z,8.40
2024-04-08T03:24:02.919Z,8.95
2024-04-08T03:26:35.111Z,9.63
2024-04-08T03:29:07.844Z,9.75
2024-04-08T03:31:39.091Z,9.38
2024-04-08T03:34:11.249Z,9.90
2024-04-08T03:36:40.574Z,10.50
2024-04-08T03:39:12.712Z,10.98
2024-04-08T03:41:47.737Z,11.00
2024-04-08T03:44:19.876Z,12.45
2024-04-08T03:46:54.092Z,11.65
2024-04-08T03:49:23.389Z,11.48
2024-04-08T03:51:55.535Z,11.50
2024-04-08T03:54:24.817Z,11.95
2024-04-08T03:56:59.811Z,12.07
2024-04-08T03:59:29.104Z,11.88
2024-04-08T04:02:01.176Z,12.10
2024-04-08T04:04:30.384Z,11.57
2024-04-08T04:07:02.470Z,10.27
2024-04-08T04:09:31.782Z,9.50
2024-04-08T04:12:06.835Z,10.32
2024-04-08T04:14:36.138Z,9.88
2024-04-08T04:17:08.442Z,9.18
2024-04-08T04:19:37.762Z,9.05
2024-04-08T04:22:10.130Z,9.43
2024-04-08T04:24:39.390Z,8.85
2024-04-08T04:27:14.335Z,8.52
2024-04-08T04:29:43.712Z,9.27
2024-04-08T04:32:15.880Z,8.82
2024-04-08T04:34:47.944Z,8.38
2024-04-08T04:37:17.253Z,9.20
2024-04-08T04:39:49.433Z,9.07
2024-04-08T04:42:21.963Z,9.60
2024-04-08T04:44:55.858Z,8.25
2024-04-08T04:47:25.221Z,9.45
2024-04-08T04:49:57.443Z,10.07
2024-04-08T04:52:26.742Z,8.65
2024-04-08T04:54:58.802Z,9.32
2024-04-08T04:57:30.935Z,9.15
2024-04-08T05:00:03.143Z,8.90
2024-04-08T05:02:32.386Z,9.65
2024-04-08T05:05:04.623Z,8.45
2024-04-08T05:07:33.883Z,8.68
2024-04-08T05:10:06.043Z,9.48
2024-04-08T05:12:38.414Z,9.35
2024-04-08T05:15:10.965Z,8.75
2024-04-08T05:17:40.571Z,8.77
2024-04-08T05:20:13.532Z,8.40
2024-04-08T05:22:48.503Z,8.70
2024-04-08T05:25:20.787Z,7.80
2024-04-08T05:27:52.965Z,8.25
2024-04-08T05:30:25.185Z,7.90
2024-04-08T05:35:42.377Z,7.43
2024-04-08T05:38:11.740Z,7.30
2024-04-08T05:40:44.681Z,7.65
2024-04-08T05:45:56.116Z,7.60
2024-04-08T05:48:25.484Z,7.20
2024-04-08T05:50:57.665Z,7.47
2024-04-08T05:53:27.337Z,6.70
2024-04-08T05:55:59.612Z,6.90
2024-04-08T05:58:28.986Z,6.63
2024-04-08T06:01:04.105Z,6.60
2024-04-08T06:03:33.542Z,6.60
2024-04-08T06:06:08.389Z,7.30
2024-04-08T06:08:37.701Z,5.88
2024-04-08T06:11:10.316Z,5.97
2024-04-08T06:13:39.614Z,6.15
2024-04-08T06:16:14.709Z,6.25
2024-04-08T06:18:44.092Z,6.25
2024-04-08T06:21:16.223Z,6.00
2024-04-08T06:23:45.520Z,6.15
2024-04-08T06:26:17.655Z,6.28
2024-04-08T06:28:47.057Z,5.35
2024-04-08T06:31:22.308Z,5.53
2024-04-08T06:33:51.637Z,5.88
2024-04-08T06:36:26.533Z,4.93
2024-04-08T06:38:55.885Z,5.68
2024-04-08T06:41:28.118Z,5.57
2024-04-08T06:43:57.472Z,6.22
2024-04-08T06:46:32.554Z,6.38
2024-04-08T06:49:01.920Z,6.05
2024-04-08T06:51:34.076Z,5.25
2024-04-08T06:54:03.421Z,5.25
2024-04-08T06:56:35.590Z,5.35
2024-04-08T06:59:04.856Z,5.03
2024-04-08T07:01:39.880Z,6.28
2024-04-08T07:04:09.093Z,5.78
2024-04-08T07:06:41.299Z,5.63
2024-04-08T07:09:11.518Z,6.78
2024-04-08T07:11:43.803Z,6.38
2024-04-08T07:14:13.784Z,6.40
2024-04-08T07:16:50.651Z,6.60
2024-04-08T07:19:19.940Z,6.20
2024-04-08T07:21:54.711Z,7.25
2024-04-08T07:24:25.668Z,6.65
2024-04-08T07:26:57.863Z,7.07
2024-04-08T07:29:27.261Z,7.25
2024-04-08T07:32:02.255Z,6.72
2024-04-08T07:34:31.667Z,7.22
2024-04-08T07:37:03.765Z,7.65
2024-04-08T07:39:37.193Z,7.28
2024-04-08T07:42:11.446Z,7.35
2024-04-08T07:44:40.726Z,7.82
2024-04-08T07:47:15.816Z,7.80
2024-04-08T07:49:48.008Z,7.90
2024-04-08T07:52:20.166Z,8.00
2024-04-08T07:54:51.943Z,8.38
2024-04-08T07:57:24.307Z,8.15
2024-04-08T07:59:54.541Z,8.60
2024-04-08T08:02:31.618Z,7.88
2024-04-08T08:05:00.939Z,7.65
2024-04-08T08:07:33.071Z,7.95
2024-04-08T08:10:05.194Z,6.72
2024-04-08T08:12:37.344Z,6.40
2024-04-08T08:15:09.919Z,9.25
2024-04-08T08:17:45.070Z,8.45
2024-04-08T08:20:17.284Z,7.93
2024-04-08T08:22:50.699Z,7.88
2024-04-08T08:25:22.858Z,7.25
2024-04-08T08:27:54.926Z,7.40
2024-04-08T08:30:27.204Z,8.43
2024-04-08T08:33:02.259Z,7.75
2024-04-08T08:35:34.628Z,9.02
2024-04-08T08:38:04.202Z,8.80
2024-04-08T08:40:37.195Z,8.32
2024-04-08T08:43:10.878Z,9.23
2024-04-08T08:45:48.559Z,9.45
2024-04-08T08:48:23.922Z,9.27
2024-04-08T08:50:53.971Z,9.45
2024-04-08T08:53:26.192Z,10.10
2024-04-08T08:56:00.430Z,10.95
2024-04-08T08:58:33.005Z,10.43
2024-04-08T09:01:04.684Z,11.05
2024-04-08T09:03:40.628Z,12.15
2024-04-08T09:06:12.834Z,10.05
2024-04-08T09:08:45.270Z,9.82
2024-04-08T09:11:14.698Z,10.07
2024-04-08T09:13:46.913Z,10.25
2024-04-08T09:16:24.033Z,10.38
2024-04-08T09:18:59.004Z,10.48
2024-04-08T09:21:28.402Z,10.27
2024-04-08T09:24:08.563Z,10.07
2024-04-08T09:26:38.114Z,10.60
2024-04-08T09:29:10.287Z,10.43
2024-04-08T09:31:39.786Z,11.60
2024-04-08T09:34:15.212Z,11.90
2024-04-08T09:36:45.761Z,11.52
2024-04-08T09:39:18.555Z,15.40
2024-04-08T09:41:48.457Z,12.15
2024-04-08T09:44:22.733Z,12.68
2024-04-08T09:46:54.031Z,13.15
2024-04-08T09:49:41.566Z,16.23
2024-04-08T09:52:16.444Z,12.95
2024-04-08T09:54:48.599Z,11.93
2024-04-08T09:57:19.186Z,11.90
2024-04-08T09:59:55.912Z,12.13
2024-04-08T10:02:32.849Z,17.10
2024-04-08T10:05:10.005Z,17.48
2024-04-08T10:07:39.948Z,14.18
2024-04-08T10:12:43.978Z,11.70
2024-04-08T10:15:16.757Z,11.27
2024-04-08T10:17:47.076Z,12.40
2024-04-08T10:20:25.085Z,17.90
2024-04-08T10:22:54.791Z,23.35
2024-04-08T10:25:45.102Z,19.65
2024-04-08T10:28:18.828Z,19.55
2024-04-08T10:30:52.905Z,19.38
2024-04-08T10:33:25.651Z,13.68
2024-04-08T10:35:58.337Z,17.40
2024-04-08T10:38:32.208Z,15.30
2024-04-08T10:41:08.165Z,12.98
2024-04-08T10:43:40.719Z,12.70
2024-04-08T10:46:16.219Z,12.88
2024-04-08T10:48:48.444Z,13.73
2024-04-08T10:51:20.837Z,14.07
2024-04-08T10:53:53.098Z,16.83
2024-04-08T10:56:23.123Z,16.75
2024-04-08T10:58:56.933Z,15.35
2024-04-08T11:01:27.311Z,17.17
2024-04-08T11:04:02.278Z,17.17
2024-04-08T11:06:35.338Z,16.95
2024-04-08T11:09:10.925Z,18.63
2024-04-08T11:11:40.311Z,17.95
2024-04-08T11:14:12.625Z,20.88
2024-04-08T11:16:41.890Z,21.65
2024-04-08T11:19:16.700Z,20.73
2024-04-08T11:21:48.846Z,19.40
2024-04-08T11:24:21.105Z,20.65
2024-04-08T11:26:58.899Z,19.80
2024-04-08T11:29:34.657Z,20.42
2024-04-08T11:32:03.967Z,20.67
2024-04-08T11:34:36.147Z,20.52
2024-04-08T11:37:10.515Z,21.40
2024-04-08T11:39:43.045Z,25.58
2024-04-08T11:42:12.917Z,22.58
2024-04-08T11:44:47.359Z,23.98
2024-04-08T11:47:20.116Z,20.27
2024-04-08T11:49:52.790Z,22.50
2024-04-08T11:52:25.106Z,20.17
2024-04-08T11:55:01.456Z,18.67
2024-04-08T11:57:32.685Z,18.52
2024-04-08T12:00:05.709Z,18.73
2024-04-08T12:02:35.282Z,19.17
2024-04-08T12:05:07.751Z,19.38
2024-04-08T12:07:42.569Z,20.20
2024-04-08T12:10:16.587Z,21.48
2024-04-08T12:12:45.822Z,20.48
2024-04-08T12:15:22.025Z,19.63
2024-04-08T12:17:51.887Z,23.05
2024-04-08T12:22:56.274Z,20.02
2024-04-08T12:25:28.493Z,20.35
2024-04-08T12:28:04.176Z,20.50
2024-04-08T12:30:38.248Z,18.25
2024-04-08T12:33:08.010Z,20.25
2024-04-08T12:38:15.715Z,21.42
2024-04-08T12:40:45.854Z,23.20
2024-04-08T12:43:18.277Z,25.05
2024-04-08T12:45:48.264Z,19.55
2024-04-08T12:48:20.518Z,21.80
2024-04-08T12:50:50.086Z,21.83
2024-04-08T12:53:25.679Z,23.30
2024-04-08T12:55:55.792Z,23.05
2024-04-08T12:58:28.198Z,23.45
2024-04-08T13:00:58.207Z,22.90
2024-04-08T13:03:30.774Z,20.88
2024-04-08T13:06:00.450Z,20.63
2024-04-08T13:11:06.025Z,22.20
2024-04-08T13:13:46.876Z,20.52
2024-04-08T13:16:18.221Z,21.45
2024-04-08T13:18:52.120Z,22.35
2024-04-08T13:21:28.471Z,22.70
2024-04-08T13:24:06.000Z,22.58
2024-04-08T13:26:39.265Z,21.67
2024-04-08T13:29:11.775Z,20.77
2024-04-08T13:31:49.940Z,19.30
2024-04-08T13:34:22.315Z,20.50
2024-04-08T13:36:51.944Z,21.42
2024-04-08T13:39:27.002Z,22.63
2024-04-08T13:41:56.385Z,19.85
2024-04-08T13:44:28.503Z,23.80
2024-04-08T13:46:59.639Z,21.27
2024-04-08T13:49:31.847Z,22.48
2024-04-08T13:52:06.594Z,22.08
2024-04-08T13:54:43.085Z,20.17
2024-04-08T13:57:12.448Z,16.88
2024-04-08T13:59:44.644Z,16.20
2024-04-08T14:02:14.246Z,16.20
2024-04-08T14:04:46.440Z,14.63
2024-04-08T14:07:15.799Z,14.57
2024-04-08T14:09:50.886Z,14.52
2024-04-08T14:12:20.315Z,14.30
2024-04-08T14:14:52.607Z,12.10
2024-04-08T14:17:21.884Z,13.38
2024-04-08T14:19:54.044Z,13.63
2024-04-08T14:22:23.490Z,13.57
2024-04-08T14:24:59.251Z,13.73
2024-04-08T14:27:28.658Z,13.45
2024-04-08T14:30:01.666Z,12.43
2024-04-08T14:32:32.230Z,13.20
2024-04-08T14:35:04.486Z,12.32
2024-04-08T14:37:51.209Z,11.43
2024-04-08T14:40:32.539Z,12.75
2024-04-08T14:43:04.046Z,16.13
2024-04-08T14:45:37.944Z,14.85
2024-04-08T14:48:09.094Z,16.00
2024-04-08T14:50:41.274Z,17.48
2024-04-08T14:53:10.853Z,13.93
2024-04-08T14:55:46.415Z,13.95
2024-04-08T14:58:16.322Z,13.27
2024-04-08T15:00:49.509Z,13.63
2024-04-08T15:03:18.939Z,13.82
2024-04-08T15:05:51.282Z,13.43
2024-04-08T15:08:20.681Z,13.02
2024-04-08T15:11:05.639Z,12.77
2024-04-08T15:13:35.020Z,12.55
2024-04-08T15:16:07.205Z,12.30
2024-04-08T15:18:42.698Z,12.35
2024-04-08T15:21:14.938Z,13.32
2024-04-08T15:23:44.250Z,12.52
2024-04-08T15:26:19.268Z,13.65
2024-04-08T15:28:49.443Z,13.10
2024-04-08T15:31:21.646Z,12.88
2024-04-08T15:33:51.158Z,13.57
2024-04-08T15:36:23.638Z,12.25
2024-04-08T15:38:53.048Z,13.43
2024-04-08T15:41:28.152Z,14.60
2024-04-08T15:43:57.962Z,14.00
2024-04-08T15:46:32.931Z,11.70
2024-04-08T15:49:03.243Z,11.43
2024-04-08T15:51:36.110Z,11.50
2024-04-08T15:54:08.776Z,10.20
2024-04-08T15:56:43.915Z,10.25
2024-04-08T15:59:13.203Z,10.93
2024-04-08T16:01:45.419Z,10.63
2024-04-08T16:04:14.995Z,10.95
2024-04-08T16:06:47.465Z,10.20
2024-04-08T16:09:17.261Z,9.88
2024-04-08T16:11:52.636Z,10.10
2024-04-08T16:14:22.098Z,11.50
2024-04-08T16:16:56.227Z,11.73
2024-04-08T16:19:25.569Z,11.30
2024-04-08T16:21:58.225Z,13.35
2024-04-08T16:24:27.581Z,12.25
2024-04-08T16:27:02.641Z,14.05
2024-04-08T16:29:31.933Z,12.25
2024-04-08T16:32:04.139Z,13.82
2024-04-08T16:34:34.041Z,15.27
2024-04-08T16:37:07.386Z,17.27
2024-04-08T16:39:36.704Z,16.73
2024-04-08T16:42:12.247Z,16.13
2024-04-08T16:44:44.980Z,17.60
2024-04-08T16:47:18.063Z,14.30
2024-04-08T16:49:47.634Z,12.32
2024-04-08T16:52:19.717Z,11.43
2024-04-08T16:54:49.028Z,11.38
2024-04-08T16:57:24.345Z,12.77
2024-04-08T16:59:53.670Z,11.40
2024-04-08T17:02:26.070Z,11.52
2024-04-08T17:04:55.634Z,10.95
2024-04-08T17:07:29.601Z,11.85
2024-04-08T17:10:00.425Z,11.27
2024-04-08T17:12:38.819Z,11.43
2024-04-08T17:15:09.151Z,11.63
2024-04-08T17:17:45.967Z,10.68
2024-04-08T17:20:16.686Z,10.15
2024-04-08T17:22:53.538Z,10.10
2024-04-08T17:25:23.118Z,9.60
2024-04-08T17:27:58.126Z,8.35
2024-04-08T17:30:27.453Z,8.90
2024-04-08T17:32:59.875Z,9.43
2024-04-08T17:35:29.358Z,8.65
2024-04-08T17:38:01.560Z,9.32
2024-04-08T17:40:32.973Z,8.82
2024-04-08T17:43:08.300Z,9.00
2024-04-08T17:45:37.567Z,9.07
2024-04-08T17:48:11.496Z,8.25
2024-04-08T17:50:48.672Z,9.27
2024-04-08T17:53:20.806Z,8.02
2024-04-08T17:55:57.973Z,8.75
2024-04-08T17:58:34.036Z,8.60
2024-04-08T18:01:09.174Z,8.57
2024-04-08T18:03:42.173Z,7.57
2024-04-08T18:06:12.348Z,6.47
2024-04-08T18:08:45.939Z,6.88
2024-04-08T18:11:15.838Z,6.25
2024-04-08T18:13:50.921Z,6.10
2024-04-08T18:16:21.253Z,5.38
2024-04-08T18:18:54.522Z,5.40
2024-04-08T18:21:24.922Z,5.35
2024-04-08T18:23:57.259Z,5.65
2024-04-08T18:26:26.604Z,5.10
2024-04-08T18:29:01.655Z,5.05
2024-04-08T18:31:30.927Z,5.68
2024-04-08T18:34:04.130Z,5.95
2024-04-08T18:36:33.470Z,5.18
2024-04-08T18:39:07.813Z,3.97
2024-04-08T18:41:37.227Z,4.13
2024-04-08T18:44:14.238Z,4.35
2024-04-08T18:46:43.569Z,4.35
2024-04-08T18:49:15.857Z,4.55
2024-04-08T18:51:45.509Z,3.95
2024-04-08T18:54:17.812Z,4.13
2024-04-08T18:56:47.263Z,3.83
2024-04-08T18:59:22.291Z,3.15
2024-04-08T19:01:51.634Z,3.35
2024-04-08T19:04:24.011Z,3.08
2024-04-08T19:06:53.442Z,3.15
2024-04-08T19:09:25.642Z,3.40
2024-04-08T19:11:55.156Z,3.20
2024-04-08T19:14:30.365Z,3.13
2024-04-08T19:16:59.734Z,3.35
2024-04-08T19:19:32.477Z,3.08
2024-04-08T19:22:01.946Z,4.53
2024-04-08T19:24:34.391Z,3.33
2024-04-08T19:27:05.095Z,3.25
2024-04-08T19:29:40.156Z,3.70
2024-04-08T19:32:09.669Z,3.80
2024-04-08T19:34:41.771Z,4.68
2024-04-08T19:37:11.097Z,4.22
2024-04-08T19:39:43.727Z,3.70
2024-04-08T19:42:13.035Z,3.30
2024-04-08T19:44:48.111Z,3.40
2024-04-08T19:47:17.663Z,3.42
2024-04-08T19:49:50.409Z,3.70
2024-04-08T19:52:19.972Z,4.32
2024-04-08T19:54:56.622Z,3.90
2024-04-08T19:57:26.001Z,4.38
2024-04-08T20:00:01.289Z,3.90
2024-04-08T20:02:32.880Z,3.70
2024-04-08T20:05:05.012Z,3.95
2024-04-08T20:07:34.279Z,4.10
2024-04-08T20:10:07.621Z,3.35
2024-04-08T20:12:37.059Z,3.90
2024-04-08T20:15:12.705Z,3.60
2024-04-08T20:17:42.048Z,3.63
2024-04-08T20:20:17.654Z,3.75
2024-04-08T20:22:46.918Z,4.72
2024-04-08T20:25:19.202Z,3.60
2024-04-08T20:27:48.514Z,3.55
2024-04-08T20:30:23.502Z,3.88
2024-04-08T20:32:52.906Z,3.72
2024-04-08T20:35:25.114Z,3.90
2024-04-08T20:37:54.660Z,4.70
2024-04-08T20:40:26.765Z,3.63
2024-04-08T20:42:58.298Z,2.75
2024-04-08T20:45:38.868Z,4.72
2024-04-08T20:48:08.728Z,4.20
2024-04-08T20:53:09.588Z,3.05
2024-04-08T20:55:41.748Z,3.50
2024-04-08T20:58:11.072Z,3.20
2024-04-08T21:00:46.510Z,3.72
2024-04-08T21:03:15.874Z,3.28
2024-04-08T21:05:48.262Z,3.00
2024-04-08T21:08:17.691Z,3.28
2024-04-08T21:10:49.877Z,2.67
2024-04-08T21:13:19.228Z,3.00
2024-04-08T21:15:59.477Z,3.40
2024-04-08T21:18:29.730Z,3.15
2024-04-08T21:21:05.380Z,2.72
2024-04-08T21:23:35.446Z,2.47
2024-04-08T21:26:12.430Z,2.90
2024-04-08T21:28:43.357Z,2.60
2024-04-08T21:31:19.267Z,3.17
2024-04-08T21:33:50.365Z,3.10
2024-04-08T21:36:23.489Z,2.80
2024-04-08T21:38:53.603Z,2.95
2024-04-08T21:41:25.780Z,2.95
2024-04-08T21:43:55.048Z,3.05
2024-04-08T21:46:30.021Z,3.22
2024-04-08T21:48:59.408Z,2.58
2024-04-08T21:51:31.730Z,2.90
2024-04-08T21:54:01.262Z,2.50
2024-04-08T21:56:33.651Z,2.40
2024-04-08T21:59:02.959Z,3.10
2024-04-08T22:01:38.043Z,2.60
2024-04-08T22:04:07.615Z,2.78
2024-04-08T22:06:39.823Z,2.50
2024-04-08T22:09:10.689Z,2.65
2024-04-08T22:11:42.860Z,2.80
2024-04-08T22:14:12.291Z,3.00
2024-04-08T22:16:47.410Z,2.40
2024-04-08T22:19:16.845Z,2.80
2024-04-08T22:21:48.992Z,3.20
2024-04-08T22:24:18.325Z,2.95
2024-04-08T22:26:50.481Z,2.45
2024-04-08T22:29:19.804Z,2.72
2024-04-08T22:31:54.891Z,2.33
2024-04-08T22:34:24.482Z,2.30
2024-04-08T22:36:56.744Z,2.60
2024-04-08T22:39:26.039Z,2.47
2024-04-08T22:41:58.307Z,2.58
2024-04-08T22:44:27.637Z,2.33
2024-04-08T22:47:02.680Z,2.30
2024-04-08T22:49:32.053Z,2.38
2024-04-08T22:52:04.836Z,2.47
2024-04-08T22:54:34.369Z,2.42
2024-04-08T22:57:06.683Z,2.35
2024-04-08T22:59:36.100Z,2.30
2024-04-08T23:02:11.104Z,2.90
2024-04-08T23:04:41.214Z,2.20
2024-04-08T23:07:13.486Z,2.47
2024-04-08T23:09:43.212Z,2.20
2024-04-08T23:12:16.060Z,2.28
2024-04-08T23:14:45.370Z,2.40
2024-04-08T23:17:20.833Z,2.20
2024-04-08T23:19:50.145Z,2.40
2024-04-08T23:22:22.315Z,2.97
2024-04-08T23:24:51.572Z,2.90
2024-04-08T23:27:23.818Z,2.28
2024-04-08T23:29:53.268Z,2.17
2024-04-08T23:32:28.315Z,2.25
2024-04-08T23:34:58.119Z,2.13
2024-04-08T23:39:58.944Z,1.92
2024-04-08T23:42:31.175Z,1.75
2024-04-08T23:45:00.745Z,2.33
2024-04-08T23:47:36.040Z,1.83
2024-04-08T23:50:05.880Z,2.10
2024-04-08T23:52:38.060Z,2.00
2024-04-08T23:55:09.208Z,2.10
2024-04-08T23:57:41.496Z,2.03
